Meath Environmental Platform

Observations

Time Sensor AQI SAQ Temp °C Hum % Pres Pa CO μg/m³ H₂S μg/m³ NO μg/m³ NO₂ μg/m³ O₃ μg/m³ SO₂ μg/m³ CO₂e PPM VOC PPM PM1 μg/m³ PM2.5 μg/m³ PM4 μg/m³ PM10 μg/m³ TPS µm
Tuesday 11 August 2026
04:22 Trim Patrick St 1 11.2 80 38,460 0.37 2.57 4.07 25.11 9.1 0 5.43 8.68 9.55
04:22 Trim Market St 2 12.7 74 48,254 0.37 0 3.81 25.73 34.28 0 3.56 4.8 8.13
04:21 Trim Patrick St 1 11.2 81 38,460 0.37 2.98 4.06 28.1 5.58 0 5.43 9.37 10.31
04:20 Trim Patrick St 1 11.2 80 38,460 0.37 2.49 4.11 25.96 6.19 0 4.57 8.68 9.55
04:19 Trim Patrick St 1 11.2 81 38,460 0.38 2.41 4.17 25.13 8.34 0 4.57 8.68 9.54
04:18 Trim Patrick St 1 11.3 80 38,460 0.37 3.32 4.12 28.88 5.88 0 2.86 6.59 7.25
04:17 Trim Patrick St 1 11.3 80 38,460 0.36 3.01 4.13 29.32 4.31 0 4.57 9.38 10.32
04:17 Trim Market St 2 12.7 74 49,490 0.37 0 3.83 21.87 27.88 0 2.85 5.77 9.35
04:16 Trim Patrick St 1 11.2 80 38,460 0.37 2.75 4.23 29.82 3.65 0 5.43 10.08 11.09
04:16 Trim Market St 2 12.8 74 49,646 0.36 0 3.8 15.38 30.49 0 2.85 4.33 7.53
04:15 Trim Patrick St 1 11.3 80 38,460 0.36 2.16 4.19 27.61 6.67 0 4.57 8.68 9.55
04:13 Trim Patrick St 1 11.3 80 38,460 0.36 2.78 4.15 26.75 9.01 0 4.57 7.98 8.78
04:11 Trim Patrick St 1 11.3 80 38,460 0.36 3.04 4.06 28.46 5.08 0 3.71 7.98 8.78
04:10 Trim Patrick St 1 11.3 80 38,460 0.37 3.09 4.02 28.45 7.11 0 5.43 8.69 9.56
04:09 Trim Patrick St 1 11.3 80 38,460 0.37 3.17 4.07 28.88 4.9 0 4.57 7.99 8.79
04:08 Trim Patrick St 1 11.3 80 38,460 0.36 2.8 4.14 29.32 4.42 0 4.57 8.69 9.56
04:08 Trim Market St 2 12.8 73 50,215 0.35 0 3.8 15.54 34.75 0 2.85 3.86 6.32
04:07 Trim Patrick St 1 11.3 80 38,460 0.37 2.73 4.18 25.91 11.06 0 5.43 10.09 11.1
04:07 Trim Market St 2 12.9 73 50,339 0.35 0 3.77 16.47 35.53 0 3.56 4.35 6.92
04:06 Trim Market St 2 12.9 73 50,487 0.36 0 3.68 17.59 35.49 0 2.85 4.35 6.92